Time;durP1;ratioP1;P1;durP2;ratioP2;P2;SDS_P1;SDS_P2;PMS_P1;PMS_P2;Temp;Humidity;BMP_temperature;BMP_pressure;BME280_temperature;BME280_humidity;BME280_pressure;Samples;Min_cycle;Max_cycle;Signal;HPM_P1;HPM_P2
2022/10/16 00:01:18;;;;;;;17.60;9.77;;;12.90;77.80;;;;;;5016945;28;20357;-78
2022/10/16 00:03:47;;;;;;;16.60;9.63;;;12.90;77.80;;;;;;5020498;28;20224;-77
2022/10/16 00:06:17;;;;;;;21.30;10.57;;;12.80;77.90;;;;;;5015270;28;20306;-77
2022/10/16 00:08:46;;;;;;;19.47;11.07;;;12.80;78.70;;;;;;5015782;28;20278;-76
2022/10/16 00:11:16;;;;;;;18.50;10.37;;;12.80;77.90;;;;;;5032877;28;20302;-76
2022/10/16 00:13:49;;;;;;;20.67;10.57;;;12.80;77.90;;;;;;5014503;28;20224;-76
2022/10/16 00:16:19;;;;;;;25.07;11.57;;;12.80;78.00;;;;;;5016638;28;20258;-76
2022/10/16 00:18:47;;;;;;;18.70;10.60;;;12.80;78.40;;;;;;5021853;28;20279;-76
2022/10/16 00:21:18;;;;;;;24.83;11.13;;;12.70;78.30;;;;;;5021850;28;20657;-77
2022/10/16 00:23:46;;;;;;;25.43;11.20;;;12.80;78.30;;;;;;5020515;28;20273;-77
2022/10/16 00:26:17;;;;;;;24.90;10.70;;;12.70;78.20;;;;;;5018222;28;20287;-77
2022/10/16 00:28:49;;;;;;;19.50;10.27;;;12.70;78.20;;;;;;5018942;28;20302;-76
2022/10/16 00:31:19;;;;;;;20.17;11.00;;;12.60;78.20;;;;;;5015873;28;20320;-77
2022/10/16 00:33:47;;;;;;;19.63;10.67;;;12.70;78.30;;;;;;5015205;28;20594;-77
2022/10/16 00:36:18;;;;;;;18.27;10.27;;;12.60;78.50;;;;;;5018851;28;20564;-76
2022/10/16 00:38:46;;;;;;;23.40;9.97;;;12.60;78.40;;;;;;5015000;28;20231;-79
2022/10/16 00:41:16;;;;;;;21.17;11.23;;;12.60;78.40;;;;;;5022499;28;20203;-77
2022/10/16 00:43:48;;;;;;;21.83;11.10;;;12.60;78.50;;;;;;5018010;28;20661;-77
2022/10/16 00:46:19;;;;;;;20.43;10.87;;;12.60;78.40;;;;;;5023278;28;20284;-77
2022/10/16 00:48:52;;;;;;;22.83;11.50;;;12.50;78.30;;;;;;5024247;28;20545;-77
2022/10/16 00:51:26;;;;;;;22.50;11.03;;;12.60;78.40;;;;;;5014768;28;20275;-77
2022/10/16 00:53:55;;;;;;;23.37;10.70;;;12.50;78.50;;;;;;5024133;28;20245;-78
2022/10/16 00:56:24;;;;;;;20.13;11.07;;;12.50;78.60;;;;;;5017896;28;20287;-77
2022/10/16 00:58:53;;;;;;;18.60;11.70;;;12.50;78.70;;;;;;5014376;28;20189;-77
2022/10/16 01:01:22;;;;;;;18.23;10.43;;;12.40;78.90;;;;;;5009497;28;20224;-77
2022/10/16 01:03:50;;;;;;;17.33;10.70;;;12.50;78.90;;;;;;5026614;28;20188;-77
2022/10/16 01:06:26;;;;;;;20.73;11.40;;;12.40;78.80;;;;;;5015940;28;20601;-76
2022/10/16 01:09:04;;;;;;;22.57;11.10;;;12.40;78.90;;;;;;5027436;28;20328;-76
2022/10/16 01:11:38;;;;;;;26.83;12.00;;;12.40;78.90;;;;;;5017607;28;20288;-77
2022/10/16 01:14:20;;;;;;;23.73;11.40;;;12.30;78.80;;;;;;5025394;28;20218;-78
2022/10/16 01:16:56;;;;;;;25.43;12.00;;;12.30;78.80;;;;;;5023111;28;20184;-76
2022/10/16 01:19:37;;;;;;;26.33;10.70;;;12.40;78.80;;;;;;4985187;28;20871;-76
2022/10/16 01:22:07;;;;;;;23.77;10.93;;;12.30;78.80;;;;;;5018355;28;20192;-77
2022/10/16 01:24:42;;;;;;;19.83;10.87;;;12.30;78.90;;;;;;5020135;28;20192;-77
2022/10/16 01:27:14;;;;;;;20.47;11.20;;;12.30;78.80;;;;;;5016641;28;20297;-77
2022/10/16 01:29:51;;;;;;;20.27;11.47;;;12.30;78.90;;;;;;5024509;28;20242;-78
2022/10/16 01:32:23;;;;;;;26.27;11.83;;;12.30;79.00;;;;;;5015214;28;20709;-78
2022/10/16 01:34:55;;;;;;;19.83;11.40;;;12.20;79.10;;;;;;5022412;28;20563;-77
2022/10/16 01:37:33;;;;;;;22.13;11.13;;;12.20;79.40;;;;;;5023079;28;20234;-76
2022/10/16 01:40:06;;;;;;;20.67;11.20;;;12.20;79.40;;;;;;5021231;28;20219;-77
2022/10/16 01:42:40;;;;;;;18.53;10.53;;;12.20;79.40;;;;;;5015417;28;20192;-77
2022/10/16 01:45:13;;;;;;;19.13;10.90;;;12.20;79.40;;;;;;5017035;28;20670;-78
2022/10/16 01:47:43;;;;;;;19.20;11.40;;;12.10;79.40;;;;;;5011000;28;20745;-78
2022/10/16 01:50:13;;;;;;;19.93;11.33;;;12.10;79.50;;;;;;5005216;28;20594;-78
2022/10/16 01:52:45;;;;;;;22.57;11.43;;;12.10;79.40;;;;;;5010499;28;20228;-77
2022/10/16 01:55:17;;;;;;;23.10;12.47;;;12.20;79.50;;;;;;5019396;28;20231;-77
2022/10/16 01:57:50;;;;;;;23.73;12.03;;;12.10;79.60;;;;;;5026779;28;20231;-77
2022/10/16 02:00:21;;;;;;;20.27;12.00;;;12.10;79.70;;;;;;5016008;28;20242;-76
2022/10/16 02:02:52;;;;;;;19.30;10.63;;;12.10;79.70;;;;;;5022627;28;20191;-76
2022/10/16 02:05:26;;;;;;;28.07;15.00;;;12.10;79.70;;;;;;5023723;28;20653;-77
2022/10/16 02:07:55;;;;;;;28.00;15.60;;;12.10;79.70;;;;;;5026722;28;20227;-78
2022/10/16 02:10:30;;;;;;;27.47;16.03;;;12.10;79.70;;;;;;5022870;28;20661;-77
2022/10/16 02:13:06;;;;;;;29.37;16.00;;;12.10;79.70;;;;;;5020244;28;20208;-77
2022/10/16 02:15:34;;;;;;;26.43;14.17;;;12.10;79.70;;;;;;5023765;28;22074;-77
2022/10/16 02:18:03;;;;;;;23.63;12.80;;;12.10;80.70;;;;;;5014996;28;20287;-76
2022/10/16 02:20:35;;;;;;;23.23;11.90;;;12.10;79.90;;;;;;5012633;28;20224;-77
2022/10/16 02:23:04;;;;;;;19.50;10.97;;;12.10;79.90;;;;;;5015248;28;20203;-75
2022/10/16 02:25:37;;;;;;;20.00;12.17;;;12.00;80.00;;;;;;5015901;28;20280;-77
2022/10/16 02:28:13;;;;;;;20.83;10.87;;;12.00;80.00;;;;;;5016298;28;20219;-77
2022/10/16 02:30:46;;;;;;;18.90;10.63;;;12.00;80.10;;;;;;5024815;28;20559;-77
2022/10/16 02:33:16;;;;;;;20.20;10.43;;;11.90;80.20;;;;;;5019486;28;20302;-77
2022/10/16 02:35:47;;;;;;;18.23;10.57;;;11.90;80.10;;;;;;5026783;28;20290;-78
2022/10/16 02:38:17;;;;;;;24.93;11.20;;;11.90;80.10;;;;;;5022379;28;20287;-77
2022/10/16 02:40:45;;;;;;;17.37;10.33;;;11.90;80.30;;;;;;5022304;28;20282;-78
2022/10/16 02:43:15;;;;;;;19.77;10.00;;;11.90;80.40;;;;;;5015783;28;20232;-77
2022/10/16 02:45:43;;;;;;;19.90;10.20;;;11.80;80.70;;;;;;5020102;28;20228;-78
2022/10/16 02:48:12;;;;;;;17.13;10.60;;;11.80;80.70;;;;;;5020463;28;20714;-78
2022/10/16 02:50:43;;;;;;;24.00;11.50;;;11.80;80.80;;;;;;5026141;28;20196;-77
2022/10/16 02:53:11;;;;;;;20.63;11.00;;;11.70;81.00;;;;;;5022197;28;20208;-78
2022/10/16 02:55:39;;;;;;;19.70;10.47;;;11.70;80.80;;;;;;5021395;28;20224;-78
2022/10/16 02:58:08;;;;;;;20.57;10.40;;;11.70;80.90;;;;;;5020164;28;20604;-79
2022/10/16 03:00:37;;;;;;;20.20;10.20;;;11.70;81.00;;;;;;5014828;28;20294;-77
2022/10/16 03:03:06;;;;;;;21.30;10.60;;;11.70;81.20;;;;;;5018849;28;20191;-77
2022/10/16 03:05:34;;;;;;;19.77;10.20;;;11.70;81.10;;;;;;5015786;28;20708;-77
2022/10/16 03:08:02;;;;;;;18.93;10.40;;;11.70;81.20;;;;;;5026670;28;20188;-77
2022/10/16 03:10:30;;;;;;;18.33;9.83;;;11.70;81.20;;;;;;5025405;28;20220;-77
2022/10/16 03:12:58;;;;;;;17.03;9.23;;;11.70;81.20;;;;;;5014989;28;20223;-78
2022/10/16 03:15:28;;;;;;;25.17;11.33;;;11.60;81.20;;;;;;5025488;28;20215;-78
2022/10/16 03:17:58;;;;;;;20.93;10.90;;;11.60;81.30;;;;;;5022169;28;21159;-78
2022/10/16 03:20:27;;;;;;;20.73;10.90;;;11.60;81.30;;;;;;5010476;28;20192;-77
2022/10/16 03:22:55;;;;;;;18.50;10.40;;;11.60;81.30;;;;;;5021446;28;20284;-78
2022/10/16 03:25:24;;;;;;;16.27;9.73;;;11.60;81.30;;;;;;5021347;28;20242;-77
2022/10/16 03:27:52;;;;;;;19.53;9.80;;;11.60;81.30;;;;;;5019147;28;20253;-77
2022/10/16 03:30:21;;;;;;;16.03;9.13;;;11.60;81.30;;;;;;5025917;28;20372;-77
2022/10/16 03:32:53;;;;;;;19.70;9.70;;;11.60;81.40;;;;;;5030667;28;20267;-76
2022/10/16 03:35:24;;;;;;;19.07;9.60;;;11.60;81.30;;;;;;5015670;28;20224;-77
2022/10/16 03:37:52;;;;;;;19.33;9.47;;;11.60;81.30;;;;;;5030176;28;20191;-78
2022/10/16 03:40:21;;;;;;;20.10;10.33;;;11.60;81.20;;;;;;5019144;28;20212;-78
2022/10/16 03:42:49;;;;;;;17.97;8.90;;;11.50;81.10;;;;;;5019949;28;20230;-78
2022/10/16 03:45:18;;;;;;;18.83;9.97;;;11.60;81.20;;;;;;5023379;28;20231;-78
2022/10/16 03:47:47;;;;;;;18.97;9.47;;;11.60;81.20;;;;;;5016612;28;20274;-77
2022/10/16 03:50:15;;;;;;;18.63;9.83;;;11.60;81.10;;;;;;5013988;28;20288;-76
2022/10/16 03:52:52;;;;;;;17.53;8.83;;;11.60;81.00;;;;;;5016642;28;20669;-77
2022/10/16 03:55:23;;;;;;;17.67;10.00;;;11.60;80.90;;;;;;5015052;28;20184;-77
2022/10/16 03:57:51;;;;;;;17.97;9.73;;;11.60;80.90;;;;;;5023959;28;20230;-76
2022/10/16 04:00:19;;;;;;;14.50;8.83;;;11.60;80.90;;;;;;5028078;28;20657;-77
2022/10/16 04:02:47;;;;;;;18.27;8.67;;;11.60;80.90;;;;;;5019147;28;20192;-77
2022/10/16 04:05:16;;;;;;;18.03;10.33;;;11.60;80.90;;;;;;5020195;28;20203;-77
2022/10/16 04:07:45;;;;;;;16.07;9.27;;;11.50;80.80;;;;;;5018331;28;20246;-77
2022/10/16 04:10:14;;;;;;;18.50;9.23;;;11.50;80.80;;;;;;5022504;28;20253;-77
2022/10/16 04:12:42;;;;;;;17.97;9.70;;;11.50;80.80;;;;;;5022073;28;20626;-77
2022/10/16 04:15:11;;;;;;;20.03;8.53;;;11.50;80.70;;;;;;5024622;28;20361;-76
2022/10/16 04:17:39;;;;;;;17.27;8.87;;;11.50;80.80;;;;;;5017914;28;20223;-76
2022/10/16 04:20:08;;;;;;;19.63;9.97;;;11.50;80.70;;;;;;5023045;28;20906;-77
2022/10/16 04:22:36;;;;;;;18.50;9.73;;;11.50;80.80;;;;;;5024135;28;20215;-77
2022/10/16 04:25:07;;;;;;;17.83;8.80;;;11.40;80.70;;;;;;5019357;28;20642;-77
2022/10/16 04:27:35;;;;;;;20.33;9.70;;;11.40;80.80;;;;;;5019890;28;20212;-77
2022/10/16 04:30:04;;;;;;;17.47;9.10;;;11.40;80.70;;;;;;5029650;28;20717;-76
2022/10/16 04:32:32;;;;;;;18.13;8.87;;;11.40;81.60;;;;;;5027276;28;20279;-78
2022/10/16 04:35:00;;;;;;;16.07;9.53;;;11.30;80.90;;;;;;5027361;28;20259;-78
2022/10/16 04:37:28;;;;;;;16.43;8.80;;;11.30;80.90;;;;;;5023438;28;20223;-75
2022/10/16 04:39:57;;;;;;;19.23;8.80;;;11.30;80.90;;;;;;5028901;28;20199;-78
2022/10/16 04:42:26;;;;;;;18.43;8.30;;;11.30;81.00;;;;;;5024023;28;20723;-77
2022/10/16 04:44:55;;;;;;;15.30;8.73;;;11.30;81.20;;;;;;5027748;28;20225;-78
2022/10/16 04:47:23;;;;;;;16.60;8.40;;;11.20;81.20;;;;;;5018904;28;20224;-78
2022/10/16 04:49:52;;;;;;;17.37;9.10;;;11.20;81.50;;;;;;5028383;28;20191;-78
2022/10/16 04:52:21;;;;;;;16.33;8.53;;;11.20;81.80;;;;;;5023842;28;20662;-77
2022/10/16 04:54:50;;;;;;;16.73;9.57;;;11.10;81.80;;;;;;5026273;28;20280;-77
2022/10/16 04:57:18;;;;;;;18.13;8.67;;;11.20;81.90;;;;;;5026084;28;21146;-77
2022/10/16 04:59:48;;;;;;;17.77;10.90;;;11.10;81.90;;;;;;5023945;28;20238;-78
2022/10/16 05:02:16;;;;;;;21.00;11.33;;;11.10;82.10;;;;;;5022306;28;20266;-77
2022/10/16 05:04:44;;;;;;;20.87;11.00;;;11.10;82.10;;;;;;5028310;28;20188;-77
2022/10/16 05:07:12;;;;;;;18.13;10.40;;;11.10;82.20;;;;;;5030095;28;20196;-76
2022/10/16 05:09:41;;;;;;;23.87;11.27;;;11.10;82.20;;;;;;5021300;28;20674;-77
2022/10/16 05:12:09;;;;;;;25.53;12.80;;;11.10;82.40;;;;;;5021194;28;20228;-76
2022/10/16 05:14:37;;;;;;;26.50;12.23;;;11.10;82.70;;;;;;5019664;28;20703;-76
2022/10/16 05:17:07;;;;;;;21.37;11.73;;;11.10;82.80;;;;;;5008071;28;20280;-78
2022/10/16 05:19:35;;;;;;;18.97;10.37;;;11.10;82.90;;;;;;5013914;28;20199;-77
2022/10/16 05:22:04;;;;;;;19.80;10.53;;;11.10;82.80;;;;;;5016522;28;20231;-77
2022/10/16 05:24:32;;;;;;;22.47;9.23;;;11.10;83.00;;;;;;5026903;28;20295;-77
2022/10/16 05:27:00;;;;;;;16.37;9.47;;;11.10;83.00;;;;;;5026238;28;20665;-77
2022/10/16 05:29:28;;;;;;;20.40;10.03;;;11.20;83.30;;;;;;5024659;28;20288;-77
2022/10/16 05:31:57;;;;;;;23.93;9.80;;;11.20;83.20;;;;;;5019369;28;20719;-77
2022/10/16 05:34:26;;;;;;;19.77;9.33;;;11.20;83.10;;;;;;5021375;28;20263;-77
2022/10/16 05:36:54;;;;;;;16.10;8.80;;;11.30;83.10;;;;;;5029613;28;20215;-77
2022/10/16 05:39:23;;;;;;;16.33;9.17;;;11.30;83.10;;;;;;5022690;28;20261;-76
2022/10/16 05:41:52;;;;;;;15.60;8.97;;;11.40;83.10;;;;;;5017191;28;20221;-75
2022/10/16 05:44:20;;;;;;;19.10;8.63;;;11.40;83.10;;;;;;5024301;28;20235;-76
2022/10/16 05:46:48;;;;;;;15.60;8.10;;;11.40;83.20;;;;;;5034602;28;20195;-76
2022/10/16 05:49:17;;;;;;;16.23;9.10;;;11.50;83.10;;;;;;5030964;28;20231;-77
2022/10/16 05:51:46;;;;;;;15.67;8.93;;;11.50;83.10;;;;;;5027536;28;20227;-77
2022/10/16 05:54:15;;;;;;;22.27;9.63;;;11.60;83.30;;;;;;5011319;28;20644;-77
2022/10/16 05:56:43;;;;;;;19.53;8.87;;;11.60;83.40;;;;;;5028788;28;20632;-78
2022/10/16 05:59:12;;;;;;;15.43;8.70;;;11.60;83.40;;;;;;5014342;28;20291;-81
2022/10/16 06:01:40;;;;;;;12.83;7.63;;;11.70;83.50;;;;;;5014330;28;20696;-80
2022/10/16 06:04:09;;;;;;;14.93;8.20;;;11.70;83.40;;;;;;5014885;28;20280;-82
2022/10/16 06:06:38;;;;;;;13.90;8.37;;;11.70;83.50;;;;;;5026450;28;20234;-82
2022/10/16 06:09:08;;;;;;;15.20;8.70;;;11.80;83.40;;;;;;5021797;28;20246;-80
2022/10/16 06:11:38;;;;;;;15.27;7.43;;;11.90;83.40;;;;;;5030786;28;20719;-80
2022/10/16 06:14:07;;;;;;;16.83;8.03;;;11.90;83.30;;;;;;5022279;28;20223;-79
2022/10/16 06:16:36;;;;;;;15.53;7.77;;;12.00;83.30;;;;;;5030541;28;20736;-80
2022/10/16 06:19:06;;;;;;;15.20;8.57;;;12.10;83.30;;;;;;5030555;28;20228;-81
2022/10/16 06:21:34;;;;;;;15.00;7.30;;;12.10;83.20;;;;;;5028523;28;20617;-80
2022/10/16 06:24:03;;;;;;;15.90;7.47;;;12.20;83.30;;;;;;5028702;28;20231;-80
2022/10/16 06:26:32;;;;;;;13.07;7.50;;;12.30;83.40;;;;;;5030975;28;20290;-80
2022/10/16 06:29:01;;;;;;;6.77;4.87;;;12.40;83.30;;;;;;5029393;28;20740;-78
2022/10/16 06:31:30;;;;;;;9.50;5.07;;;12.40;83.20;;;;;;5033129;28;20223;-79
2022/10/16 06:33:59;;;;;;;10.80;4.67;;;12.50;82.90;;;;;;5027993;28;20202;-80
2022/10/16 06:36:27;;;;;;;9.87;4.77;;;12.60;82.70;;;;;;5027746;28;20262;-80
2022/10/16 06:38:56;;;;;;;9.80;4.87;;;12.70;82.40;;;;;;5031407;28;20286;-78
2022/10/16 06:41:24;;;;;;;8.60;4.40;;;12.70;82.10;;;;;;5024082;28;20246;-79
2022/10/16 06:43:54;;;;;;;9.43;4.77;;;12.90;82.00;;;;;;5021846;28;20227;-76
2022/10/16 06:46:25;;;;;;;11.23;4.70;;;12.90;80.60;;;;;;5018587;28;20239;-80
2022/10/16 06:48:54;;;;;;;12.83;5.57;;;13.00;80.50;;;;;;5023047;28;20293;-80
2022/10/16 06:51:24;;;;;;;10.13;4.37;;;13.00;79.80;;;;;;5020552;28;20291;-80
2022/10/16 06:53:56;;;;;;;8.97;4.47;;;13.10;80.00;;;;;;5020276;28;20232;-79
2022/10/16 06:56:33;;;;;;;7.97;4.40;;;13.20;79.90;;;;;;5025599;28;20762;-79
2022/10/16 06:59:03;;;;;;;11.03;4.20;;;13.30;79.60;;;;;;5029024;28;20226;-80
2022/10/16 07:01:32;;;;;;;9.00;4.50;;;13.40;79.60;;;;;;5029783;28;20191;-77
2022/10/16 07:04:01;;;;;;;6.20;4.10;;;13.40;79.10;;;;;;5033514;28;20359;-78
2022/10/16 07:06:34;;;;;;;6.97;4.13;;;13.50;78.80;;;;;;5024867;28;20564;-80
2022/10/16 07:09:05;;;;;;;7.40;4.20;;;13.60;78.20;;;;;;5034560;28;20237;-80
2022/10/16 07:11:35;;;;;;;9.07;4.23;;;13.60;78.20;;;;;;5028706;28;20227;-79
2022/10/16 07:14:04;;;;;;;8.83;4.20;;;13.70;77.90;;;;;;5024318;28;20661;-82
2022/10/16 07:16:34;;;;;;;11.63;4.37;;;13.80;78.20;;;;;;5026207;28;20247;-79
2022/10/16 07:19:03;;;;;;;6.47;3.87;;;13.90;77.20;;;;;;5021621;28;20612;-82
2022/10/16 07:21:35;;;;;;;8.73;3.97;;;14.00;77.40;;;;;;5021300;28;20734;-80
2022/10/16 07:24:05;;;;;;;9.97;4.60;;;14.00;76.80;;;;;;5026493;28;20199;-80
2022/10/16 07:26:36;;;;;;;9.00;4.13;;;14.10;76.70;;;;;;5022750;28;20200;-81
2022/10/16 07:29:05;;;;;;;8.17;4.07;;;14.20;76.60;;;;;;5030299;28;20234;-79
2022/10/16 07:31:34;;;;;;;8.13;4.30;;;14.20;76.20;;;;;;5029351;28;20197;-80
2022/10/16 07:34:02;;;;;;;6.63;3.97;;;14.30;75.60;;;;;;5031725;28;20656;-81
2022/10/16 07:36:31;;;;;;;8.03;4.17;;;14.40;75.50;;;;;;5024870;28;20228;-82
2022/10/16 07:38:59;;;;;;;8.30;4.13;;;14.40;75.60;;;;;;5024201;28;20203;-82
2022/10/16 07:41:28;;;;;;;9.60;4.00;;;14.50;75.40;;;;;;5019623;28;20192;-81
2022/10/16 07:43:59;;;;;;;5.00;3.30;;;14.60;75.50;;;;;;5024149;28;20188;-84
2022/10/16 07:46:30;;;;;;;6.03;3.40;;;14.70;75.30;;;;;;5030477;28;20214;-83
2022/10/16 07:48:58;;;;;;;5.77;3.70;;;14.70;75.00;;;;;;5023370;28;20268;-84
2022/10/16 07:51:27;;;;;;;7.30;3.80;;;14.80;74.80;;;;;;5019227;28;20207;-82
2022/10/16 07:53:56;;;;;;;10.47;3.43;;;14.90;74.60;;;;;;5024758;28;20242;-80
2022/10/16 07:56:24;;;;;;;10.73;4.67;;;14.90;73.00;;;;;;5026880;28;20277;-80
2022/10/16 07:58:53;;;;;;;9.60;3.53;;;15.00;73.10;;;;;;5020179;28;20279;-80
2022/10/16 08:01:21;;;;;;;7.80;3.70;;;15.10;73.00;;;;;;5020068;28;20220;-81
2022/10/16 08:03:53;;;;;;;8.77;4.07;;;15.10;73.30;;;;;;5033067;28;20246;-79
2022/10/16 08:06:23;;;;;;;5.40;3.30;;;15.20;72.70;;;;;;5027834;28;20564;-82
2022/10/16 08:08:56;;;;;;;5.03;3.53;;;15.30;72.70;;;;;;5018227;28;20645;-83
2022/10/16 08:11:24;;;;;;;9.97;3.50;;;15.30;71.60;;;;;;5026137;28;20855;-80
2022/10/16 08:13:53;;;;;;;9.97;3.60;;;15.40;71.90;;;;;;5028617;28;20598;-81
2022/10/16 08:16:21;;;;;;;9.00;3.43;;;15.50;72.00;;;;;;5024296;28;20211;-80
2022/10/16 08:18:51;;;;;;;8.13;3.90;;;15.50;72.00;;;;;;5018375;28;20251;-80
2022/10/16 08:21:22;;;;;;;7.97;3.73;;;15.60;71.60;;;;;;5023655;28;20295;-81
2022/10/16 08:23:51;;;;;;;7.90;3.73;;;15.70;71.30;;;;;;5030372;28;20286;-84
2022/10/16 08:26:26;;;;;;;5.53;3.20;;;15.70;71.20;;;;;;5025583;28;20212;-82
2022/10/16 08:28:55;;;;;;;7.20;3.80;;;15.80;70.10;;;;;;5017231;28;20593;-82
2022/10/16 08:31:25;;;;;;;6.80;3.57;;;15.80;69.80;;;;;;5020775;28;20667;-80
2022/10/16 08:33:56;;;;;;;7.53;3.80;;;15.90;70.20;;;;;;5027570;28;20235;-80
2022/10/16 08:36:24;;;;;;;6.13;4.10;;;15.90;69.80;;;;;;5019966;28;20289;-82
2022/10/16 08:38:54;;;;;;;9.43;3.70;;;16.00;69.10;;;;;;5021423;28;20314;-80
2022/10/16 08:41:35;;;;;;;8.83;4.07;;;16.00;68.70;;;;;;5033363;28;20326;-78
2022/10/16 08:44:25;;;;;;;10.03;4.07;;;16.10;68.60;;;;;;5025472;28;20443;-79
2022/10/16 08:47:03;;;;;;;8.73;4.80;;;16.20;68.40;;;;;;5020860;28;20937;-78
2022/10/16 08:49:33;;;;;;;7.67;3.60;;;16.30;68.70;;;;;;5021919;28;20249;-81
2022/10/16 08:52:01;;;;;;;9.80;4.17;;;16.30;67.90;;;;;;5026746;28;20196;-80
2022/10/16 08:54:34;;;;;;;7.17;3.77;;;16.40;68.20;;;;;;5020637;28;20726;-79
2022/10/16 08:57:10;;;;;;;7.87;4.10;;;16.50;68.10;;;;;;5032780;28;20281;-80
2022/10/16 08:59:39;;;;;;;9.83;4.10;;;16.50;68.20;;;;;;5032533;28;20184;-83
2022/10/16 09:02:25;;;;;;;11.60;4.13;;;16.60;68.10;;;;;;5023331;28;20231;-81
2022/10/16 09:05:22;;;;;;;8.97;4.00;;;16.70;68.10;;;;;;5019647;28;20225;-80
2022/10/16 09:07:59;;;;;;;16.73;5.00;;;16.70;67.40;;;;;;5023560;28;20247;-80
2022/10/16 09:10:45;;;;;;;8.60;3.97;;;16.80;66.90;;;;;;5024832;28;20277;-80
2022/10/16 09:13:22;;;;;;;8.83;4.33;;;16.80;66.40;;;;;;5029135;28;20275;-76
2022/10/16 09:19:20;;;;;;;10.20;5.57;;;16.90;65.80;;;;;;4988136;28;20818;-75
2022/10/16 09:21:52;;;;;;;9.73;5.97;;;17.00;66.40;;;;;;5014935;28;20222;-76
2022/10/16 09:24:23;;;;;;;9.50;6.03;;;17.10;66.50;;;;;;5032052;28;20192;-76
2022/10/16 09:26:56;;;;;;;10.50;6.30;;;17.10;66.80;;;;;;5025434;28;20187;-77
2022/10/16 09:29:24;;;;;;;12.87;7.63;;;17.20;66.90;;;;;;5029068;28;20250;-75
2022/10/16 09:31:54;;;;;;;10.57;7.00;;;17.30;66.90;;;;;;5026491;28;20192;-77
2022/10/16 09:34:31;;;;;;;15.17;6.80;;;17.30;67.10;;;;;;5029630;28;20571;-78
2022/10/16 09:37:04;;;;;;;12.88;6.70;;;17.30;66.50;;;;;;5021344;28;20552;-78
2022/10/16 09:39:45;;;;;;;11.00;6.37;;;17.40;66.00;;;;;;5016081;28;20212;-76
2022/10/16 09:42:18;;;;;;;8.90;5.80;;;17.40;66.40;;;;;;5027563;28;20191;-78
2022/10/16 09:44:50;;;;;;;9.27;5.87;;;17.40;65.40;;;;;;5029083;28;20317;-76
2022/10/16 09:47:22;;;;;;;12.67;5.80;;;17.50;65.80;;;;;;5024337;28;20707;-75
2022/10/16 09:49:56;;;;;;;13.17;6.47;;;17.50;65.10;;;;;;5037108;28;20283;-76
2022/10/16 09:52:26;;;;;;;12.37;6.27;;;17.50;64.70;;;;;;5018433;28;20402;-75
2022/10/16 09:54:56;;;;;;;10.13;6.20;;;17.60;64.80;;;;;;5021520;28;20286;-78
2022/10/16 09:57:25;;;;;;;10.27;6.07;;;17.60;65.00;;;;;;5025779;28;20269;-82
2022/10/16 09:59:55;;;;;;;11.23;6.30;;;17.70;65.50;;;;;;5030899;28;20242;-83
2022/10/16 10:02:30;;;;;;;11.77;6.20;;;17.70;65.40;;;;;;5028521;28;20200;-83
2022/10/16 10:04:58;;;;;;;13.53;6.30;;;17.80;65.50;;;;;;5029553;28;20199;-82
2022/10/16 10:07:32;;;;;;;12.40;6.60;;;17.80;65.50;;;;;;5030764;28;20295;-83
2022/10/16 10:10:03;;;;;;;12.80;6.67;;;17.90;65.80;;;;;;5034699;28;20194;-85
2022/10/16 10:12:35;;;;;;;10.63;6.30;;;18.00;65.70;;;;;;5038553;28;20226;-85
2022/10/16 10:15:08;;;;;;;11.33;6.53;;;18.00;65.60;;;;;;5018294;28;20291;-84
2022/10/16 10:17:47;;;;;;;9.83;6.63;;;18.10;65.70;;;;;;5034030;28;20216;-80
2022/10/16 10:20:24;;;;;;;10.10;6.77;;;18.10;65.60;;;;;;5034256;28;20215;-84
2022/10/16 10:22:55;;;;;;;14.47;8.03;;;18.20;65.60;;;;;;5022157;28;20191;-80
2022/10/16 10:25:49;;;;;;;11.23;6.50;;;18.20;65.60;;;;;;5032907;28;20246;-83
2022/10/16 10:28:51;;;;;;;13.80;7.93;;;18.30;65.50;;;;;;5032382;28;20235;-80
2022/10/16 10:31:25;;;;;;;12.53;7.40;;;18.40;65.20;;;;;;4994001;28;20199;-85
2022/10/16 10:33:59;;;;;;;13.23;7.60;;;18.40;65.20;;;;;;5030679;28;20199;-80
2022/10/16 10:36:33;;;;;;;16.07;6.77;;;18.50;65.10;;;;;;5033174;28;20262;-83
2022/10/16 10:39:07;;;;;;;12.40;6.70;;;18.50;64.90;;;;;;5034698;28;20261;-81
2022/10/16 10:42:09;;;;;;;15.37;7.47;;;18.60;65.00;;;;;;5043953;28;20285;-83
2022/10/16 10:45:05;;;;;;;10.20;6.33;;;18.60;64.60;;;;;;5021495;28;20238;-86
2022/10/16 10:47:44;;;;;;;12.47;6.23;;;18.70;64.30;;;;;;5035472;28;20223;-84
2022/10/16 10:50:20;;;;;;;14.57;6.93;;;18.70;64.30;;;;;;5032245;28;20258;-81
2022/10/16 10:52:59;;;;;;;10.90;7.30;;;18.80;64.20;;;;;;5034716;28;20196;-83
2022/10/16 10:55:38;;;;;;;12.73;7.20;;;18.80;64.00;;;;;;5033318;28;20231;-87
2022/10/16 10:58:36;;;;;;;14.97;6.80;;;18.80;63.20;;;;;;5037050;28;20211;-83
2022/10/16 11:01:10;;;;;;;12.00;7.00;;;18.90;62.90;;;;;;5033797;28;20215;-81
2022/10/16 11:03:59;;;;;;;9.90;6.37;;;18.90;63.30;;;;;;5033705;28;20245;-82
2022/10/16 11:06:30;;;;;;;12.47;6.77;;;19.00;63.30;;;;;;5023786;28;21498;-82
2022/10/16 11:09:03;;;;;;;12.50;6.57;;;19.00;63.30;;;;;;5036286;28;20191;-85
2022/10/16 11:11:37;;;;;;;11.53;6.70;;;19.10;63.00;;;;;;5039225;28;20610;-83
2022/10/16 11:14:12;;;;;;;15.83;7.07;;;19.10;62.90;;;;;;5020970;28;20230;-81
2022/10/16 11:16:46;;;;;;;10.83;6.40;;;19.10;62.50;;;;;;5030878;28;20278;-80
2022/10/16 11:19:27;;;;;;;10.63;6.17;;;19.20;62.40;;;;;;5037975;28;20227;-82
2022/10/16 11:22:02;;;;;;;9.37;6.00;;;19.20;62.50;;;;;;5034271;28;20231;-85
2022/10/16 11:24:38;;;;;;;9.57;6.50;;;19.30;62.50;;;;;;5032358;28;20239;-85
2022/10/16 11:27:12;;;;;;;15.97;8.50;;;19.30;62.00;;;;;;5032084;28;20287;-84
2022/10/16 11:29:50;;;;;;;12.40;7.00;;;19.40;62.00;;;;;;5032698;28;20200;-85
2022/10/16 11:32:25;;;;;;;11.27;7.20;;;19.40;61.40;;;;;;5032289;28;20200;-82
2022/10/16 11:34:58;;;;;;;10.43;6.37;;;19.40;61.50;;;;;;5033399;28;20230;-80
2022/10/16 11:37:31;;;;;;;10.70;6.90;;;19.50;61.70;;;;;;5039490;28;20646;-84
2022/10/16 11:40:11;;;;;;;11.60;6.43;;;19.50;61.50;;;;;;5028040;28;20603;-83
2022/10/16 11:42:47;;;;;;;12.57;6.30;;;19.50;61.50;;;;;;5030094;28;20292;-82
2022/10/16 11:45:28;;;;;;;8.60;5.77;;;19.60;61.40;;;;;;5028575;28;20690;-85
2022/10/16 11:48:02;;;;;;;14.13;7.67;;;19.70;61.50;;;;;;5032816;28;20245;-85
2022/10/16 11:50:36;;;;;;;11.13;6.50;;;19.70;61.50;;;;;;5032513;28;20261;-85
2022/10/16 11:53:15;;;;;;;11.37;6.17;;;19.70;61.40;;;;;;5030834;28;20872;-83
2022/10/16 11:55:45;;;;;;;9.20;5.90;;;19.70;60.80;;;;;;5030933;28;20257;-83
2022/10/16 11:58:23;;;;;;;10.57;6.30;;;19.80;61.00;;;;;;5024389;28;20722;-84
2022/10/16 12:01:00;;;;;;;8.83;6.37;;;19.80;60.60;;;;;;5032880;28;20249;-84
2022/10/16 12:03:32;;;;;;;11.57;6.83;;;19.90;60.60;;;;;;5034503;28;20248;-84
2022/10/16 12:06:14;;;;;;;8.47;5.80;;;19.90;60.40;;;;;;5036743;28;20249;-85
2022/10/16 12:08:45;;;;;;;9.80;6.33;;;19.90;59.70;;;;;;5029947;28;20235;-85
2022/10/16 12:11:31;;;;;;;16.00;7.73;;;19.90;59.80;;;;;;5035059;28;20223;-85
2022/10/16 12:14:19;;;;;;;9.67;6.30;;;19.90;59.40;;;;;;5032541;28;20259;-84
2022/10/16 12:16:57;;;;;;;10.37;6.00;;;20.00;59.70;;;;;;5031850;28;20191;-83
2022/10/16 12:19:27;;;;;;;11.07;6.17;;;20.00;59.70;;;;;;5033941;28;20262;-86
2022/10/16 12:21:58;;;;;;;12.77;6.13;;;20.00;59.30;;;;;;5032144;28;20333;-85
2022/10/16 12:24:35;;;;;;;13.90;6.50;;;20.10;59.60;;;;;;5032010;28;20195;-84
2022/10/16 12:27:07;;;;;;;9.73;5.70;;;20.10;59.40;;;;;;5037975;28;20195;-83
2022/10/16 12:29:38;;;;;;;12.20;6.03;;;20.10;59.50;;;;;;5032369;28;20245;-81
2022/10/16 12:32:24;;;;;;;9.50;5.70;;;20.20;59.50;;;;;;5031454;28;20195;-82
2022/10/16 12:35:20;;;;;;;9.23;5.27;;;20.20;59.50;;;;;;5022518;28;20223;-83
2022/10/16 12:37:49;;;;;;;10.70;5.85;;;20.30;59.70;;;;;;5031580;28;20757;-83
2022/10/16 12:40:27;;;;;;;11.55;6.13;;;20.40;60.00;;;;;;5031333;28;20204;-84
2022/10/16 12:42:56;;;;;;;11.63;5.47;;;20.40;59.70;;;;;;5029324;28;20230;-84
2022/10/16 12:45:30;;;;;;;8.50;5.45;;;20.50;59.90;;;;;;5028905;28;20195;-84
2022/10/16 12:48:01;;;;;;;8.73;5.15;;;20.60;59.90;;;;;;5033261;28;20302;-82
2022/10/16 12:50:35;;;;;;;9.52;5.40;;;20.80;59.70;;;;;;5042188;28;20231;-83
2022/10/16 12:53:18;;;;;;;8.63;5.70;;;20.90;59.60;;;;;;5031807;28;20195;-81
2022/10/16 12:55:57;;;;;;;14.32;5.05;;;21.00;58.70;;;;;;5029503;28;20274;-84
2022/10/16 12:58:46;;;;;;;12.07;5.38;;;21.10;58.50;;;;;;5019136;28;20216;-82
2022/10/16 13:01:32;;;;;;;11.00;5.72;;;21.10;58.10;;;;;;5031862;28;20228;-85
2022/10/16 13:04:21;;;;;;;10.00;5.43;;;21.10;57.50;;;;;;5032441;28;20187;-82